createdAt,value
2023-04-18T00:04:54.563Z,100099.25
2023-04-18T00:15:17.096Z,100107.09
2023-04-18T00:25:38.410Z,100090.47
2023-04-18T00:36:00.035Z,100093.00
2023-04-18T00:46:21.971Z,100092.69
2023-04-18T00:56:44.839Z,100090.47
2023-04-18T01:07:06.671Z,100086.00
2023-04-18T01:17:29.626Z,100092.25
2023-04-18T01:27:51.640Z,100081.75
2023-04-18T01:38:13.021Z,100078.47
2023-04-18T01:48:34.722Z,100078.44
2023-04-18T01:58:56.460Z,100086.69
2023-04-18T02:09:18.217Z,100075.13
2023-04-18T02:19:39.715Z,100077.59
2023-04-18T02:30:01.904Z,100081.94
2023-04-18T02:40:23.642Z,100081.94
2023-04-18T02:50:45.124Z,100083.72
2023-04-18T03:01:07.256Z,100070.94
2023-04-18T03:11:43.384Z,100076.38
2023-04-18T03:22:06.166Z,100079.47
2023-04-18T03:32:30.039Z,100075.69
2023-04-18T03:42:51.650Z,100088.03
2023-04-18T03:53:14.507Z,100087.94
2023-04-18T04:03:36.502Z,100092.41
2023-04-18T04:13:59.461Z,100088.72
2023-04-18T04:24:29.123Z,100091.75
2023-04-18T04:34:51.826Z,100083.91
2023-04-18T04:45:14.593Z,100087.41
2023-04-18T04:55:36.158Z,100096.06
2023-04-18T05:06:00.049Z,100102.09
2023-04-18T05:16:23.070Z,100105.78
2023-04-18T05:26:44.635Z,100107.41
2023-04-18T05:37:06.426Z,100110.34
2023-04-18T05:47:28.679Z,100105.25
2023-04-18T05:57:50.622Z,100106.72
2023-04-18T06:08:12.302Z,100101.84
2023-04-18T06:18:33.860Z,100107.94
2023-04-18T06:28:56.006Z,100099.22
2023-04-18T06:39:17.684Z,100097.69
2023-04-18T06:49:39.280Z,100096.19
2023-04-18T07:00:00.868Z,100102.53
2023-04-18T07:10:22.521Z,100104.81
2023-04-18T07:20:44.348Z,100099.16
2023-04-18T07:31:06.661Z,100098.81
2023-04-18T07:41:28.503Z,100102.06
2023-04-18T07:51:50.262Z,100093.16
2023-04-18T08:02:11.442Z,100086.16
2023-04-18T08:12:32.710Z,100084.59
2023-04-18T08:23:05.578Z,100078.88
2023-04-18T08:33:29.899Z,100065.50
2023-04-18T08:43:51.552Z,100069.72
2023-04-18T08:54:13.071Z,100064.50
2023-04-18T09:04:37.721Z,100049.94
2023-04-18T09:15:16.377Z,100043.03
2023-04-18T09:25:45.068Z,100031.19
2023-04-18T09:36:20.256Z,100038.16
2023-04-18T09:46:42.015Z,100033.25
2023-04-18T09:57:08.609Z,100029.09
2023-04-18T10:07:30.096Z,100012.84
2023-04-18T10:18:03.674Z,100013.00
2023-04-18T10:28:28.148Z,99995.69
2023-04-18T10:45:24.146Z,100005.06
2023-04-18T10:55:49.758Z,100015.56
2023-04-18T11:06:11.373Z,100012.09
2023-04-18T11:16:34.358Z,100017.28
2023-04-18T11:26:57.071Z,100032.22
2023-04-18T11:37:19.525Z,100030.94
2023-04-18T11:47:42.755Z,100022.16
2023-04-18T11:58:04.440Z,100025.91
2023-04-18T12:08:26.890Z,100018.44
2023-04-18T12:18:48.349Z,100026.66
2023-04-18T12:29:09.977Z,100015.81
2023-04-18T12:39:31.701Z,100001.25
2023-04-18T12:49:57.200Z,100007.72
2023-04-18T13:00:23.375Z,100005.69
2023-04-18T13:10:48.683Z,100020.56
2023-04-18T13:21:10.227Z,99997.88
2023-04-18T13:31:31.859Z,99996.81
2023-04-18T13:41:54.899Z,99997.34
2023-04-18T13:52:16.427Z,99984.47
2023-04-18T14:02:38.138Z,99981.47
2023-04-18T14:12:41.564Z,99966.13
2023-04-18T14:23:02.926Z,99961.72
2023-04-18T14:33:24.825Z,99962.44
2023-04-18T14:43:46.754Z,99956.56
2023-04-18T14:54:08.160Z,99958.38
2023-04-18T15:04:30.594Z,99956.75
2023-04-18T15:14:53.903Z,99941.69
2023-04-18T15:25:18.245Z,99928.91
2023-04-18T15:35:40.052Z,99922.88
2023-04-18T15:46:01.998Z,99923.09
2023-04-18T15:56:26.919Z,99907.72
2023-04-18T16:06:48.275Z,99910.50
2023-04-18T16:17:09.731Z,99905.19
2023-04-18T16:27:31.480Z,99902.09
2023-04-18T16:37:53.302Z,99900.53
2023-04-18T16:48:15.244Z,99894.47
2023-04-18T16:58:36.851Z,99897.19
2023-04-18T17:08:58.931Z,99895.38
2023-04-18T17:19:21.342Z,99886.13
2023-04-18T17:29:42.778Z,99885.81
2023-04-18T17:40:09.885Z,99878.75
2023-04-18T17:50:32.384Z,99876.03
2023-04-18T18:00:54.466Z,99864.44
2023-04-18T18:11:16.354Z,99854.19
2023-04-18T18:21:37.738Z,99850.03
2023-04-18T18:32:00.008Z,99832.38
2023-04-18T18:42:21.409Z,99824.69
2023-04-18T18:52:43.261Z,99811.84
2023-04-18T19:03:05.518Z,99802.03
2023-04-18T19:13:27.083Z,99797.22
2023-04-18T19:23:48.969Z,99787.72
2023-04-18T19:34:11.883Z,99788.13
2023-04-18T19:44:33.486Z,99774.38
2023-04-18T19:54:55.561Z,99768.72
2023-04-18T20:05:18.595Z,99763.00
2023-04-18T20:15:40.909Z,99758.19
2023-04-18T20:26:03.518Z,99758.25
2023-04-18T20:36:25.308Z,99741.75
2023-04-18T20:46:46.969Z,99734.03
2023-04-18T20:57:08.982Z,99722.13
2023-04-18T21:07:31.199Z,99708.41
2023-04-18T21:17:52.904Z,99702.75
2023-04-18T21:28:14.695Z,99713.72
2023-04-18T21:38:36.366Z,99710.47
2023-04-18T21:48:57.858Z,99706.44
2023-04-18T21:59:19.270Z,99692.13
2023-04-18T22:09:41.104Z,99678.28
2023-04-18T22:20:03.521Z,99681.28
2023-04-18T22:30:25.116Z,99668.94
2023-04-18T22:40:46.701Z,99651.63
2023-04-18T22:51:08.093Z,99632.56
2023-04-18T23:01:29.654Z,99625.53
2023-04-18T23:11:51.417Z,99621.88
2023-04-18T23:22:13.061Z,99616.88
2023-04-18T23:32:34.776Z,99606.69
2023-04-18T23:42:57.116Z,99593.94
2023-04-18T23:53:18.836Z,99588.88
